createdAt,value
2018-02-08T00:05:10.849Z,29.65
2018-02-08T00:10:40.784Z,28.80
2018-02-08T00:13:15.201Z,28.60
2018-02-08T00:15:42.953Z,28.20
2018-02-08T00:18:10.565Z,29.12
2018-02-08T00:20:38.844Z,30.05
2018-02-08T00:23:07.229Z,29.35
2018-02-08T00:25:35.585Z,29.83
2018-02-08T00:28:04.107Z,28.45
2018-02-08T00:30:31.658Z,28.67
2018-02-08T00:32:59.194Z,32.63
2018-02-08T00:35:26.782Z,32.50
2018-02-08T00:37:55.077Z,31.27
2018-02-08T00:40:22.710Z,29.90
2018-02-08T00:42:51.042Z,29.80
2018-02-08T00:45:18.602Z,31.30
2018-02-08T00:47:46.189Z,32.30
2018-02-08T00:50:13.785Z,32.10
2018-02-08T00:52:41.335Z,31.65
2018-02-08T00:55:08.941Z,30.40
2018-02-08T00:57:36.569Z,31.67
2018-02-08T01:00:04.944Z,34.53
2018-02-08T01:02:32.518Z,31.30
2018-02-08T01:05:00.119Z,32.85
2018-02-08T01:07:28.637Z,32.03
2018-02-08T01:09:58.359Z,31.60
2018-02-08T01:12:27.242Z,31.23
2018-02-08T01:14:54.903Z,30.10
2018-02-08T01:17:24.702Z,30.58
2018-02-08T01:19:52.302Z,33.00
2018-02-08T01:22:19.984Z,28.60
2018-02-08T01:24:49.025Z,31.52
2018-02-08T01:27:16.692Z,32.08
2018-02-08T01:29:44.310Z,31.23
2018-02-08T01:32:11.937Z,31.48
2018-02-08T01:34:39.561Z,31.15
2018-02-08T01:37:07.218Z,32.00
2018-02-08T01:39:36.025Z,30.60
2018-02-08T01:42:03.650Z,31.52
2018-02-08T01:44:31.310Z,30.05
2018-02-08T01:46:58.938Z,31.30
2018-02-08T01:49:38.267Z,32.30
2018-02-08T01:52:05.986Z,30.50
2018-02-08T01:54:33.600Z,31.10
2018-02-08T01:57:01.453Z,31.58
2018-02-08T01:59:29.173Z,32.50
2018-02-08T02:01:56.865Z,30.85
2018-02-08T02:04:24.494Z,31.27
2018-02-08T02:06:52.118Z,30.67
2018-02-08T02:09:19.809Z,31.58
2018-02-08T02:11:47.402Z,30.42
2018-02-08T02:14:15.076Z,30.40
2018-02-08T02:16:43.585Z,30.85
2018-02-08T02:19:11.277Z,34.20
2018-02-08T02:21:38.889Z,33.17
2018-02-08T02:24:07.266Z,29.35
2018-02-08T02:26:34.845Z,33.38
2018-02-08T02:29:04.434Z,30.48
2018-02-08T02:31:32.081Z,35.03
2018-02-08T02:33:59.665Z,33.45
2018-02-08T02:36:27.210Z,32.97
2018-02-08T02:38:54.757Z,33.70
2018-02-08T02:41:22.361Z,33.85
2018-02-08T02:43:50.658Z,33.95
2018-02-08T02:46:18.366Z,35.15
2018-02-08T02:48:45.945Z,35.40
2018-02-08T02:51:13.565Z,32.22
2018-02-08T02:53:41.163Z,35.33
2018-02-08T02:56:08.782Z,33.90
2018-02-08T02:58:40.326Z,35.85
2018-02-08T03:01:07.904Z,34.33
2018-02-08T03:03:35.517Z,34.30
2018-02-08T03:06:03.052Z,32.70
2018-02-08T03:08:33.770Z,34.65
2018-02-08T03:11:06.622Z,33.30
2018-02-08T03:13:34.198Z,34.13
2018-02-08T03:16:04.705Z,33.08
2018-02-08T03:18:32.364Z,32.97
2018-02-08T03:21:00.005Z,35.17
2018-02-08T03:23:27.655Z,34.53
2018-02-08T03:25:55.265Z,33.80
2018-02-08T03:28:23.018Z,36.97
2018-02-08T03:30:59.554Z,36.20
2018-02-08T03:33:30.994Z,33.28
2018-02-08T03:35:58.701Z,33.35
2018-02-08T03:38:26.299Z,36.22
2018-02-08T03:40:57.378Z,36.58
2018-02-08T03:43:26.858Z,34.70
2018-02-08T03:45:56.010Z,34.33
2018-02-08T03:48:44.940Z,35.90
2018-02-08T03:53:59.061Z,36.33
2018-02-08T04:02:40.126Z,35.88
2018-02-08T04:05:12.827Z,37.28
2018-02-08T04:07:42.202Z,34.33
2018-02-08T04:10:21.306Z,37.53
2018-02-08T04:12:50.109Z,36.92
2018-02-08T04:15:21.188Z,38.50
2018-02-08T04:17:48.765Z,37.47
2018-02-08T04:20:17.073Z,36.58
2018-02-08T04:22:44.666Z,37.33
2018-02-08T04:25:12.219Z,36.63
2018-02-08T04:27:39.759Z,37.25
2018-02-08T04:30:07.341Z,37.58
2018-02-08T04:32:34.880Z,34.38
2018-02-08T04:35:02.470Z,36.42
2018-02-08T04:37:30.062Z,37.78
2018-02-08T04:40:10.380Z,38.05
2018-02-08T04:42:49.696Z,37.08
2018-02-08T04:45:29.032Z,35.40
2018-02-08T04:48:13.355Z,38.45
2018-02-08T04:50:41.702Z,39.67
2018-02-08T04:53:09.285Z,37.65
2018-02-08T04:55:36.818Z,37.78
2018-02-08T04:58:04.595Z,37.58
2018-02-08T05:00:32.409Z,37.63
2018-02-08T05:03:00.148Z,37.13
2018-02-08T05:05:27.981Z,37.88
2018-02-08T05:07:55.674Z,38.45
2018-02-08T05:10:23.320Z,39.53
2018-02-08T05:12:50.853Z,37.13
2018-02-08T05:15:19.539Z,39.75
2018-02-08T05:17:47.073Z,38.35
2018-02-08T05:20:14.596Z,39.20
2018-02-08T05:22:42.189Z,42.97
2018-02-08T05:25:10.626Z,43.00
2018-02-08T05:27:40.489Z,39.67
2018-02-08T05:30:08.818Z,39.33
2018-02-08T05:32:37.300Z,38.50
2018-02-08T05:35:16.489Z,40.60
2018-02-08T05:37:44.714Z,40.95
2018-02-08T05:40:13.218Z,39.85
2018-02-08T05:42:41.550Z,40.17
2018-02-08T05:45:09.178Z,40.97
2018-02-08T05:47:36.718Z,40.03
2018-02-08T05:50:05.680Z,40.97
2018-02-08T05:52:33.329Z,40.15
2018-02-08T05:55:00.890Z,40.00
2018-02-08T05:57:29.213Z,38.88
2018-02-08T05:59:56.784Z,40.28
2018-02-08T06:02:24.309Z,37.67
2018-02-08T06:04:51.840Z,41.83
2018-02-08T06:07:19.383Z,40.78
2018-02-08T06:09:46.905Z,41.45
2018-02-08T06:12:14.496Z,40.88
2018-02-08T06:14:42.797Z,42.20
2018-02-08T06:17:10.366Z,40.45
2018-02-08T06:19:37.889Z,40.17
2018-02-08T06:22:06.189Z,40.85
2018-02-08T06:24:33.705Z,38.45
2018-02-08T06:27:01.242Z,41.63
2018-02-08T06:29:29.095Z,40.50
2018-02-08T06:31:56.613Z,37.92
2018-02-08T06:34:24.912Z,41.35
2018-02-08T06:36:53.326Z,38.15
2018-02-08T06:39:21.849Z,41.30
2018-02-08T06:41:50.195Z,38.15
2018-02-08T06:44:17.850Z,42.30
2018-02-08T06:46:45.506Z,40.95
2018-02-08T06:49:14.047Z,37.85
2018-02-08T06:51:41.647Z,37.55
2018-02-08T06:54:09.238Z,41.90
2018-02-08T06:56:37.559Z,39.00
2018-02-08T06:59:05.155Z,42.25
2018-02-08T07:01:32.755Z,39.55
2018-02-08T07:04:01.106Z,41.90
2018-02-08T07:06:28.853Z,40.28
2018-02-08T07:08:56.430Z,43.70
2018-02-08T07:11:37.442Z,43.00
2018-02-08T07:16:50.424Z,40.97
2018-02-08T07:19:18.013Z,42.10
2018-02-08T07:21:45.554Z,43.40
2018-02-08T07:24:13.146Z,39.30
2018-02-08T07:26:40.703Z,41.40
2018-02-08T07:29:09.950Z,40.55
2018-02-08T07:31:38.515Z,42.20
2018-02-08T07:34:06.836Z,42.88
2018-02-08T07:36:34.347Z,40.92
2018-02-08T07:39:02.664Z,41.85
2018-02-08T07:41:30.185Z,43.30
2018-02-08T07:43:58.471Z,42.35
2018-02-08T07:46:26.024Z,41.50
2018-02-08T07:48:54.362Z,41.65
2018-02-08T07:51:21.911Z,43.08
2018-02-08T07:53:49.433Z,44.08
2018-02-08T07:56:17.746Z,41.13
2018-02-08T07:58:45.279Z,41.40
2018-02-08T08:01:12.815Z,40.90
2018-02-08T08:03:41.101Z,41.35
2018-02-08T08:06:09.387Z,41.75
2018-02-08T08:08:37.565Z,41.30
2018-02-08T08:11:05.084Z,41.05
2018-02-08T08:13:32.622Z,42.67
2018-02-08T08:16:00.169Z,41.75
2018-02-08T08:18:30.888Z,43.72
2018-02-08T08:20:58.417Z,41.10
2018-02-08T08:23:25.950Z,41.80
2018-02-08T08:25:53.470Z,41.10
2018-02-08T08:28:22.993Z,43.42
2018-02-08T08:30:50.521Z,40.30
2018-02-08T08:33:18.795Z,41.92
2018-02-08T08:35:47.307Z,40.58
2018-02-08T08:38:14.943Z,41.55
2018-02-08T08:40:42.474Z,41.10
2018-02-08T08:43:09.989Z,43.50
2018-02-08T08:45:37.572Z,41.97
2018-02-08T08:48:05.092Z,40.85
2018-02-08T08:50:32.600Z,41.30
2018-02-08T08:53:00.132Z,40.63
2018-02-08T08:55:27.661Z,38.80
2018-02-08T08:58:00.876Z,44.05
2018-02-08T09:00:29.437Z,40.00
2018-02-08T09:02:56.980Z,39.72
2018-02-08T09:05:24.992Z,42.97
2018-02-08T09:07:53.502Z,40.28
2018-02-08T09:10:21.189Z,40.15
2018-02-08T09:12:48.696Z,39.95
2018-02-08T09:15:16.416Z,39.58
2018-02-08T09:17:44.706Z,40.60
2018-02-08T09:20:14.034Z,42.15
2018-02-08T09:22:42.332Z,41.58
2018-02-08T09:25:11.103Z,40.55
2018-02-08T09:27:39.383Z,38.95
2018-02-08T09:30:07.558Z,44.90
2018-02-08T09:32:35.778Z,39.42
2018-02-08T09:35:03.964Z,40.50
2018-02-08T09:37:32.207Z,39.78
2018-02-08T09:40:00.098Z,39.30
2018-02-08T09:42:29.300Z,43.15
2018-02-08T09:44:57.382Z,42.62
2018-02-08T09:47:26.098Z,41.28
2018-02-08T09:49:53.822Z,43.40
2018-02-08T09:52:22.283Z,40.30
2018-02-08T09:54:50.785Z,40.70
2018-02-08T09:57:19.089Z,41.17
2018-02-08T09:59:48.447Z,40.88
2018-02-08T10:02:15.968Z,40.50
2018-02-08T10:04:43.531Z,41.10
2018-02-08T10:07:11.823Z,42.92
2018-02-08T10:09:39.326Z,39.05
2018-02-08T10:12:06.860Z,41.00
2018-02-08T10:14:34.368Z,40.78
2018-02-08T10:17:02.698Z,40.53
2018-02-08T10:19:31.225Z,39.63
2018-02-08T10:21:59.520Z,41.03
2018-02-08T10:24:27.796Z,40.92
2018-02-08T10:26:55.379Z,38.80
2018-02-08T10:29:22.904Z,41.85
2018-02-08T10:31:52.076Z,44.10
2018-02-08T10:34:20.429Z,37.67
2018-02-08T10:36:48.728Z,40.55
2018-02-08T10:39:16.258Z,39.47
2018-02-08T10:41:43.768Z,40.35
2018-02-08T10:44:12.411Z,38.22
2018-02-08T10:46:39.968Z,41.67
2018-02-08T10:49:07.484Z,42.72
2018-02-08T10:51:35.774Z,42.10
2018-02-08T10:54:04.118Z,39.83
2018-02-08T10:56:31.662Z,37.50
2018-02-08T10:58:59.194Z,40.12
2018-02-08T11:01:26.729Z,39.63
2018-02-08T11:03:55.016Z,40.15
2018-02-08T11:06:22.555Z,39.17
2018-02-08T11:08:50.860Z,42.05
2018-02-08T11:11:18.364Z,41.63
2018-02-08T11:13:45.900Z,38.67
2018-02-08T11:16:13.409Z,42.60
2018-02-08T11:18:40.958Z,39.53
2018-02-08T11:21:08.473Z,40.00
2018-02-08T11:23:36.004Z,41.90
2018-02-08T11:26:04.297Z,39.65
2018-02-08T11:28:31.838Z,42.03
2018-02-08T11:31:00.105Z,42.30
2018-02-08T11:33:28.382Z,41.08
2018-02-08T11:35:55.912Z,40.63
2018-02-08T11:38:23.467Z,40.08
2018-02-08T11:40:51.019Z,39.83
2018-02-08T11:43:18.525Z,41.80
2018-02-08T11:45:46.839Z,44.10
2018-02-08T11:48:14.357Z,40.15
2018-02-08T11:50:41.965Z,41.42
2018-02-08T11:53:09.466Z,38.95
2018-02-08T11:55:37.006Z,42.28
2018-02-08T11:58:04.525Z,39.08
2018-02-08T12:00:32.057Z,45.25
2018-02-08T12:02:59.640Z,42.90
2018-02-08T12:05:27.919Z,38.30
2018-02-08T12:07:55.449Z,42.10
2018-02-08T12:10:22.948Z,37.92
2018-02-08T12:12:50.493Z,41.97
2018-02-08T12:15:18.770Z,37.83
2018-02-08T12:17:47.059Z,41.78
2018-02-08T12:20:18.190Z,40.65
2018-02-08T12:22:46.491Z,39.03
2018-02-08T12:25:13.996Z,41.58
2018-02-08T12:27:42.335Z,41.15
2018-02-08T12:30:09.895Z,44.80
2018-02-08T12:32:37.408Z,42.88
2018-02-08T12:35:04.935Z,40.88
2018-02-08T12:37:32.440Z,41.92
2018-02-08T12:40:00.756Z,39.35
2018-02-08T12:42:28.269Z,42.28
2018-02-08T12:44:56.586Z,41.40
2018-02-08T12:47:24.122Z,42.10
2018-02-08T12:49:52.388Z,42.78
2018-02-08T12:52:20.671Z,42.35
2018-02-08T12:54:48.933Z,41.97
2018-02-08T12:57:16.482Z,40.55
2018-02-08T12:59:44.079Z,40.05
2018-02-08T13:02:11.631Z,42.85
2018-02-08T13:04:39.915Z,41.92
2018-02-08T13:07:08.220Z,42.92
2018-02-08T13:09:36.821Z,39.53
2018-02-08T13:12:04.323Z,41.88
2018-02-08T13:14:31.852Z,43.15
2018-02-08T13:16:59.381Z,39.40
2018-02-08T13:19:26.916Z,41.37
2018-02-08T13:21:54.422Z,41.20
2018-02-08T13:24:21.953Z,41.58
2018-02-08T13:26:49.457Z,41.78
2018-02-08T13:29:16.973Z,42.65
2018-02-08T13:31:46.274Z,42.35
2018-02-08T13:34:14.632Z,43.08
2018-02-08T13:36:45.184Z,41.92
2018-02-08T13:39:14.543Z,43.25
2018-02-08T13:41:42.150Z,44.63
2018-02-08T13:44:14.117Z,43.92
2018-02-08T13:46:43.043Z,44.90
2018-02-08T13:49:20.750Z,48.50
2018-02-08T13:55:09.736Z,42.05
2018-02-08T14:00:43.882Z,42.90
2018-02-08T14:03:11.417Z,43.22
2018-02-08T14:05:39.068Z,40.67
2018-02-08T14:08:06.619Z,43.25
2018-02-08T14:10:34.159Z,44.47
2018-02-08T14:13:01.688Z,43.65
2018-02-08T14:15:30.455Z,43.03
2018-02-08T14:17:57.955Z,42.10
2018-02-08T14:20:26.241Z,44.50
2018-02-08T14:22:53.752Z,45.15
2018-02-08T14:25:21.314Z,44.53
2018-02-08T14:27:48.836Z,42.28
2018-02-08T14:30:16.363Z,43.83
2018-02-08T14:32:44.648Z,45.53
2018-02-08T14:35:12.168Z,45.45
2018-02-08T14:37:39.726Z,43.13
2018-02-08T14:40:07.343Z,43.15
2018-02-08T14:42:34.908Z,45.35
2018-02-08T14:45:02.430Z,45.90
2018-02-08T14:47:31.143Z,46.20
2018-02-08T14:49:59.424Z,44.47
2018-02-08T14:52:26.951Z,47.03
2018-02-08T14:54:54.472Z,44.42
2018-02-08T14:57:21.980Z,46.10
2018-02-08T14:59:50.290Z,46.92
2018-02-08T15:02:17.802Z,45.85
2018-02-08T15:04:45.342Z,46.30
2018-02-08T15:07:12.842Z,46.17
2018-02-08T15:09:41.135Z,46.28
2018-02-08T15:12:09.984Z,47.40
2018-02-08T15:14:37.551Z,45.28
2018-02-08T15:17:05.061Z,46.97
2018-02-08T15:19:32.589Z,45.90
2018-02-08T15:22:00.885Z,44.97
2018-02-08T15:24:28.427Z,45.72
2018-02-08T15:26:56.738Z,45.78
2018-02-08T15:29:24.324Z,48.75
2018-02-08T15:31:51.895Z,46.50
2018-02-08T15:34:19.376Z,46.00
2018-02-08T15:36:46.936Z,46.85
2018-02-08T15:39:14.453Z,44.22
2018-02-08T15:41:41.964Z,45.10
2018-02-08T15:44:10.260Z,46.58
2018-02-08T15:46:37.788Z,44.28
2018-02-08T15:49:05.420Z,43.83
2018-02-08T15:51:32.937Z,43.87
2018-02-08T15:54:01.250Z,46.30
2018-02-08T15:56:29.197Z,45.70
2018-02-08T15:58:56.742Z,44.10
2018-02-08T16:01:25.012Z,44.95
2018-02-08T16:03:53.320Z,45.90
2018-02-08T16:06:20.871Z,45.72
2018-02-08T16:08:48.396Z,46.20
2018-02-08T16:11:15.917Z,47.28
2018-02-08T16:13:43.420Z,45.65
2018-02-08T16:16:10.948Z,41.88
2018-02-08T16:18:38.464Z,45.47
2018-02-08T16:21:05.994Z,45.05
2018-02-08T16:23:33.503Z,42.65
2018-02-08T16:26:01.012Z,45.28
2018-02-08T16:28:28.536Z,42.08
2018-02-08T16:30:56.049Z,45.75
2018-02-08T16:33:24.350Z,44.00
2018-02-08T16:35:51.861Z,47.20
2018-02-08T16:38:19.390Z,45.35
2018-02-08T16:40:46.956Z,45.40
2018-02-08T16:43:14.482Z,47.95
2018-02-08T16:45:42.004Z,43.25
2018-02-08T16:48:09.530Z,43.63
2018-02-08T16:50:37.829Z,44.53
2018-02-08T16:53:05.341Z,42.83
2018-02-08T16:55:32.874Z,46.03
2018-02-08T16:58:01.172Z,43.92
2018-02-08T17:00:30.465Z,43.35
2018-02-08T17:02:58.761Z,44.78
2018-02-08T17:05:26.302Z,45.65
2018-02-08T17:07:53.806Z,45.00
2018-02-08T17:10:27.087Z,44.13
2018-02-08T17:12:54.611Z,41.95
2018-02-08T17:15:22.924Z,44.35
2018-02-08T17:17:50.468Z,45.75
2018-02-08T17:20:17.984Z,47.10
2018-02-08T17:22:45.509Z,44.38
2018-02-08T17:25:13.030Z,46.88
2018-02-08T17:27:40.560Z,43.55
2018-02-08T17:30:08.073Z,45.97
2018-02-08T17:32:35.592Z,44.88
2018-02-08T17:35:03.109Z,45.60
2018-02-08T17:37:30.620Z,43.70
2018-02-08T17:39:58.158Z,46.03
2018-02-08T17:42:25.687Z,45.33
2018-02-08T17:44:53.213Z,40.75
2018-02-08T17:47:21.501Z,43.97
2018-02-08T17:49:49.028Z,44.63
2018-02-08T17:52:16.536Z,45.03
2018-02-08T17:54:44.078Z,47.53
2018-02-08T17:57:11.592Z,44.80
2018-02-08T17:59:39.133Z,45.92
2018-02-08T18:02:06.685Z,45.10
2018-02-08T18:04:34.233Z,43.65
2018-02-08T18:07:01.867Z,44.28
2018-02-08T18:09:30.168Z,44.63
2018-02-08T18:11:57.697Z,43.05
2018-02-08T18:14:25.200Z,44.78
2018-02-08T18:16:52.747Z,45.08
2018-02-08T18:19:21.470Z,47.95
2018-02-08T18:21:48.996Z,42.78
2018-02-08T18:24:16.531Z,45.50
2018-02-08T18:26:44.804Z,45.67
2018-02-08T18:29:13.137Z,45.05
2018-02-08T18:31:40.656Z,43.70
2018-02-08T18:34:08.186Z,43.67
2018-02-08T18:36:35.708Z,43.33
2018-02-08T18:39:03.243Z,40.80
2018-02-08T18:41:30.768Z,44.55
2018-02-08T18:43:58.277Z,44.42
2018-02-08T18:46:28.887Z,43.95
2018-02-08T18:48:57.166Z,41.55
2018-02-08T18:51:25.466Z,44.55
2018-02-08T18:53:54.850Z,41.75
2018-02-08T18:56:22.926Z,46.88
2018-02-08T18:58:51.405Z,44.50
2018-02-08T19:01:19.006Z,42.92
2018-02-08T19:03:46.538Z,45.10
2018-02-08T19:06:14.091Z,44.90
2018-02-08T19:08:42.480Z,43.67
2018-02-08T19:11:09.998Z,40.63
2018-02-08T19:13:38.376Z,42.00
2018-02-08T19:16:06.428Z,43.40
2018-02-08T19:18:34.001Z,42.83
2018-02-08T19:21:02.126Z,42.92
2018-02-08T19:23:30.461Z,43.50
2018-02-08T19:25:58.047Z,43.30
2018-02-08T19:28:25.589Z,42.22
2018-02-08T19:30:53.209Z,43.58
2018-02-08T19:33:20.724Z,43.95
2018-02-08T19:35:49.017Z,42.08
2018-02-08T19:38:16.529Z,48.03
2018-02-08T19:40:44.040Z,43.90
2018-02-08T19:43:11.666Z,45.38
2018-02-08T19:45:39.957Z,43.65
2018-02-08T19:48:07.506Z,42.83
2018-02-08T19:50:35.021Z,42.65
2018-02-08T19:53:02.554Z,44.00
2018-02-08T19:55:30.116Z,44.05
2018-02-08T19:57:57.615Z,42.03
2018-02-08T20:00:25.151Z,44.03
2018-02-08T20:02:53.365Z,43.40
2018-02-08T20:05:20.924Z,44.15
2018-02-08T20:07:48.433Z,42.13
2018-02-08T20:10:15.979Z,39.08
2018-02-08T20:12:44.249Z,43.78
2018-02-08T20:15:14.009Z,44.85
2018-02-08T20:17:41.533Z,42.92
2018-02-08T20:20:09.041Z,43.75
2018-02-08T20:22:36.573Z,43.65
2018-02-08T20:28:11.014Z,43.55
2018-02-08T20:30:38.584Z,45.47
2018-02-08T20:33:06.093Z,44.42
2018-02-08T20:35:33.608Z,42.97
2018-02-08T20:38:01.141Z,43.50
2018-02-08T20:40:31.424Z,41.60
2018-02-08T20:43:04.579Z,43.80
2018-02-08T20:45:32.085Z,44.28
2018-02-08T20:47:59.618Z,42.72
2018-02-08T20:50:27.142Z,43.28
2018-02-08T20:52:54.680Z,42.30
2018-02-08T20:55:22.996Z,42.95
2018-02-08T20:57:50.492Z,47.08
2018-02-08T21:00:18.026Z,39.85
2018-02-08T21:02:45.536Z,40.72
2018-02-08T21:05:13.833Z,44.28
2018-02-08T21:07:41.351Z,44.17
2018-02-08T21:10:08.887Z,43.20
2018-02-08T21:12:36.405Z,42.38
2018-02-08T21:15:04.705Z,40.88
2018-02-08T21:17:32.206Z,45.05
2018-02-08T21:19:59.725Z,42.17
2018-02-08T21:22:27.251Z,43.53
2018-02-08T21:24:54.779Z,46.70
2018-02-08T21:27:22.304Z,45.75
2018-02-08T21:29:49.805Z,43.90
2018-02-08T21:32:17.344Z,45.40
2018-02-08T21:34:44.854Z,41.60
2018-02-08T21:37:12.386Z,43.83
2018-02-08T21:39:39.894Z,47.70
2018-02-08T21:42:08.199Z,41.90
2018-02-08T21:44:35.706Z,42.80
2018-02-08T21:47:03.225Z,42.25
2018-02-08T21:49:30.764Z,46.80
2018-02-08T21:51:58.273Z,42.50
2018-02-08T21:54:25.809Z,44.03
2018-02-08T21:56:53.323Z,43.63
2018-02-08T21:59:20.862Z,43.33
2018-02-08T22:01:49.144Z,45.50
2018-02-08T22:04:17.459Z,42.42
2018-02-08T22:06:45.205Z,43.97
2018-02-08T22:09:12.731Z,41.53
2018-02-08T22:11:40.279Z,43.95
2018-02-08T22:14:07.798Z,43.35
2018-02-08T22:16:35.327Z,43.97
2018-02-08T22:19:03.604Z,45.42
2018-02-08T22:21:31.897Z,40.38
2018-02-08T22:23:59.414Z,45.00
2018-02-08T22:26:26.956Z,42.35
2018-02-08T22:28:54.464Z,43.67
2018-02-08T22:31:21.980Z,45.75
2018-02-08T22:33:49.509Z,43.67
2018-02-08T22:36:17.020Z,46.45
2018-02-08T22:38:44.553Z,42.78
2018-02-08T22:41:12.061Z,42.65
2018-02-08T22:43:40.364Z,45.08
2018-02-08T22:46:07.882Z,43.83
2018-02-08T22:48:36.201Z,45.92
2018-02-08T22:51:03.724Z,43.95
2018-02-08T22:53:32.017Z,44.17
2018-02-08T22:56:00.315Z,45.63
2018-02-08T22:58:27.923Z,43.92
2018-02-08T23:00:55.465Z,45.80
2018-02-08T23:03:22.985Z,43.92
2018-02-08T23:05:50.519Z,42.58
2018-02-08T23:08:18.825Z,45.17
2018-02-08T23:10:46.363Z,46.60
2018-02-08T23:13:14.641Z,44.60
2018-02-08T23:15:42.928Z,44.58
2018-02-08T23:18:11.231Z,45.50
2018-02-08T23:20:38.733Z,44.10
2018-02-08T23:23:06.269Z,45.03
2018-02-08T23:25:33.789Z,45.15
2018-02-08T23:28:02.078Z,46.17
2018-02-08T23:30:29.585Z,44.50
2018-02-08T23:32:57.138Z,44.78
2018-02-08T23:35:24.654Z,44.25
2018-02-08T23:37:52.181Z,47.62
2018-02-08T23:40:20.688Z,44.42
2018-02-08T23:42:48.211Z,45.55
2018-02-08T23:45:15.742Z,44.40
2018-02-08T23:47:43.252Z,46.15
2018-02-08T23:50:10.787Z,45.10
2018-02-08T23:52:38.292Z,45.33
2018-02-08T23:55:05.860Z,43.03
2018-02-08T23:57:33.366Z,45.67
